sensor_id;sensor_type;location;lat;lon;timestamp;P1;durP1;ratioP1;P2;durP2;ratioP2
51987;SDS011;38003;52.012;4.346;2023-03-12T00:00:13;8.50;;;4.00;;
51987;SDS011;38003;52.012;4.346;2023-03-12T00:02:41;8.60;;;3.50;;
51987;SDS011;38003;52.012;4.346;2023-03-12T00:05:10;9.00;;;4.20;;
51987;SDS011;38003;52.012;4.346;2023-03-12T00:07:38;5.67;;;3.60;;
51987;SDS011;38003;52.012;4.346;2023-03-12T00:10:06;6.83;;;3.50;;
51987;SDS011;38003;52.012;4.346;2023-03-12T00:12:36;7.37;;;4.23;;
51987;SDS011;38003;52.012;4.346;2023-03-12T00:15:05;7.53;;;3.73;;
51987;SDS011;38003;52.012;4.346;2023-03-12T00:17:33;9.63;;;6.00;;
51987;SDS011;38003;52.012;4.346;2023-03-12T00:20:01;6.73;;;4.00;;
51987;SDS011;38003;52.012;4.346;2023-03-12T00:22:31;9.80;;;3.97;;
51987;SDS011;38003;52.012;4.346;2023-03-12T00:24:59;7.50;;;4.00;;
51987;SDS011;38003;52.012;4.346;2023-03-12T00:27:28;9.13;;;4.00;;
51987;SDS011;38003;52.012;4.346;2023-03-12T00:29:58;10.07;;;4.10;;
51987;SDS011;38003;52.012;4.346;2023-03-12T00:32:26;6.03;;;3.93;;
51987;SDS011;38003;52.012;4.346;2023-03-12T00:34:54;7.80;;;3.90;;
51987;SDS011;38003;52.012;4.346;2023-03-12T00:37:23;4.60;;;3.70;;
51987;SDS011;38003;52.012;4.346;2023-03-12T00:39:51;9.13;;;4.37;;
51987;SDS011;38003;52.012;4.346;2023-03-12T00:42:19;7.43;;;4.03;;
51987;SDS011;38003;52.012;4.346;2023-03-12T00:44:47;5.03;;;3.53;;
51987;SDS011;38003;52.012;4.346;2023-03-12T00:47:17;8.70;;;4.27;;
51987;SDS011;38003;52.012;4.346;2023-03-12T00:49:45;6.30;;;3.67;;
51987;SDS011;38003;52.012;4.346;2023-03-12T00:52:13;7.43;;;4.00;;
51987;SDS011;38003;52.012;4.346;2023-03-12T00:54:42;7.30;;;4.23;;
51987;SDS011;38003;52.012;4.346;2023-03-12T00:57:10;8.60;;;3.87;;
51987;SDS011;38003;52.012;4.346;2023-03-12T00:59:38;5.80;;;3.90;;
51987;SDS011;38003;52.012;4.346;2023-03-12T01:02:07;6.70;;;3.87;;
51987;SDS011;38003;52.012;4.346;2023-03-12T01:04:36;5.40;;;3.90;;
51987;SDS011;38003;52.012;4.346;2023-03-12T01:07:05;6.67;;;4.00;;
51987;SDS011;38003;52.012;4.346;2023-03-12T01:09:33;8.60;;;4.43;;
51987;SDS011;38003;52.012;4.346;2023-03-12T01:12:01;7.27;;;4.20;;
51987;SDS011;38003;52.012;4.346;2023-03-12T01:14:29;7.20;;;4.00;;
51987;SDS011;38003;52.012;4.346;2023-03-12T01:16:57;7.30;;;4.20;;
51987;SDS011;38003;52.012;4.346;2023-03-12T01:19:26;6.73;;;4.10;;
51987;SDS011;38003;52.012;4.346;2023-03-12T01:21:55;7.53;;;4.23;;
51987;SDS011;38003;52.012;4.346;2023-03-12T01:24:23;7.50;;;4.40;;
51987;SDS011;38003;52.012;4.346;2023-03-12T01:26:52;9.87;;;4.37;;
51987;SDS011;38003;52.012;4.346;2023-03-12T01:29:20;10.87;;;3.90;;
51987;SDS011;38003;52.012;4.346;2023-03-12T01:31:48;6.43;;;4.00;;
51987;SDS011;38003;52.012;4.346;2023-03-12T01:34:17;12.10;;;3.90;;
51987;SDS011;38003;52.012;4.346;2023-03-12T01:36:45;5.63;;;3.77;;
51987;SDS011;38003;52.012;4.346;2023-03-12T01:39:15;6.37;;;4.10;;
51987;SDS011;38003;52.012;4.346;2023-03-12T01:41:43;5.67;;;3.60;;
51987;SDS011;38003;52.012;4.346;2023-03-12T01:44:12;7.23;;;3.87;;
51987;SDS011;38003;52.012;4.346;2023-03-12T01:46:41;10.40;;;4.00;;
51987;SDS011;38003;52.012;4.346;2023-03-12T01:49:10;7.27;;;3.67;;
51987;SDS011;38003;52.012;4.346;2023-03-12T01:51:40;9.90;;;4.07;;
51987;SDS011;38003;52.012;4.346;2023-03-12T01:54:10;5.97;;;3.67;;
51987;SDS011;38003;52.012;4.346;2023-03-12T01:56:41;4.73;;;3.37;;
51987;SDS011;38003;52.012;4.346;2023-03-12T01:59:11;6.27;;;3.73;;
51987;SDS011;38003;52.012;4.346;2023-03-12T02:01:41;7.53;;;3.30;;
51987;SDS011;38003;52.012;4.346;2023-03-12T02:04:10;6.73;;;3.80;;
51987;SDS011;38003;52.012;4.346;2023-03-12T02:06:39;5.90;;;3.53;;
51987;SDS011;38003;52.012;4.346;2023-03-12T02:09:09;5.60;;;3.53;;
51987;SDS011;38003;52.012;4.346;2023-03-12T02:11:37;6.90;;;3.50;;
51987;SDS011;38003;52.012;4.346;2023-03-12T02:14:07;7.83;;;3.53;;
51987;SDS011;38003;52.012;4.346;2023-03-12T02:16:35;6.83;;;3.40;;
51987;SDS011;38003;52.012;4.346;2023-03-12T02:19:04;7.43;;;3.70;;
51987;SDS011;38003;52.012;4.346;2023-03-12T02:21:36;7.40;;;3.53;;
51987;SDS011;38003;52.012;4.346;2023-03-12T02:24:06;4.80;;;3.20;;
51987;SDS011;38003;52.012;4.346;2023-03-12T02:26:40;8.77;;;3.60;;
51987;SDS011;38003;52.012;4.346;2023-03-12T02:29:08;6.83;;;3.57;;
51987;SDS011;38003;52.012;4.346;2023-03-12T02:31:37;6.00;;;3.30;;
51987;SDS011;38003;52.012;4.346;2023-03-12T02:34:08;5.87;;;3.70;;
51987;SDS011;38003;52.012;4.346;2023-03-12T02:36:36;9.20;;;3.97;;
51987;SDS011;38003;52.012;4.346;2023-03-12T02:39:04;9.20;;;4.20;;
51987;SDS011;38003;52.012;4.346;2023-03-12T02:41:33;11.53;;;3.60;;
51987;SDS011;38003;52.012;4.346;2023-03-12T02:44:05;6.47;;;3.60;;
51987;SDS011;38003;52.012;4.346;2023-03-12T02:46:37;7.63;;;3.80;;
51987;SDS011;38003;52.012;4.346;2023-03-12T02:49:06;6.07;;;3.80;;
51987;SDS011;38003;52.012;4.346;2023-03-12T02:51:37;6.47;;;4.03;;
51987;SDS011;38003;52.012;4.346;2023-03-12T02:54:05;8.30;;;4.30;;
51987;SDS011;38003;52.012;4.346;2023-03-12T02:56:34;9.57;;;4.10;;
51987;SDS011;38003;52.012;4.346;2023-03-12T02:59:02;7.17;;;3.67;;
51987;SDS011;38003;52.012;4.346;2023-03-12T03:01:31;6.83;;;3.87;;
51987;SDS011;38003;52.012;4.346;2023-03-12T03:04:00;8.47;;;4.47;;
51987;SDS011;38003;52.012;4.346;2023-03-12T03:06:29;8.90;;;4.00;;
51987;SDS011;38003;52.012;4.346;2023-03-12T03:08:57;7.53;;;4.27;;
51987;SDS011;38003;52.012;4.346;2023-03-12T03:11:26;9.10;;;4.30;;
51987;SDS011;38003;52.012;4.346;2023-03-12T03:13:54;7.63;;;4.00;;
51987;SDS011;38003;52.012;4.346;2023-03-12T03:16:22;7.00;;;3.93;;
51987;SDS011;38003;52.012;4.346;2023-03-12T03:18:52;5.10;;;3.40;;
51987;SDS011;38003;52.012;4.346;2023-03-12T03:21:21;5.57;;;4.13;;
51987;SDS011;38003;52.012;4.346;2023-03-12T03:23:49;5.80;;;3.80;;
51987;SDS011;38003;52.012;4.346;2023-03-12T03:26:19;4.60;;;3.70;;
51987;SDS011;38003;52.012;4.346;2023-03-12T03:28:47;10.77;;;4.43;;
51987;SDS011;38003;52.012;4.346;2023-03-12T03:31:16;7.00;;;4.30;;
51987;SDS011;38003;52.012;4.346;2023-03-12T03:33:44;7.03;;;4.10;;
51987;SDS011;38003;52.012;4.346;2023-03-12T03:36:13;6.43;;;3.77;;
51987;SDS011;38003;52.012;4.346;2023-03-12T03:38:42;7.23;;;3.80;;
51987;SDS011;38003;52.012;4.346;2023-03-12T03:41:15;5.27;;;3.70;;
51987;SDS011;38003;52.012;4.346;2023-03-12T03:43:44;5.70;;;3.57;;
51987;SDS011;38003;52.012;4.346;2023-03-12T03:46:13;7.60;;;4.07;;
51987;SDS011;38003;52.012;4.346;2023-03-12T03:48:41;9.23;;;3.60;;
51987;SDS011;38003;52.012;4.346;2023-03-12T03:51:10;7.87;;;3.90;;
51987;SDS011;38003;52.012;4.346;2023-03-12T03:53:39;7.97;;;3.67;;
51987;SDS011;38003;52.012;4.346;2023-03-12T03:56:08;6.43;;;3.80;;
51987;SDS011;38003;52.012;4.346;2023-03-12T03:58:37;6.63;;;3.70;;
51987;SDS011;38003;52.012;4.346;2023-03-12T04:01:05;9.53;;;4.23;;
51987;SDS011;38003;52.012;4.346;2023-03-12T04:03:34;9.03;;;3.57;;
51987;SDS011;38003;52.012;4.346;2023-03-12T04:06:03;7.73;;;3.93;;
51987;SDS011;38003;52.012;4.346;2023-03-12T04:08:31;8.57;;;4.33;;
51987;SDS011;38003;52.012;4.346;2023-03-12T04:11:06;6.47;;;4.37;;
51987;SDS011;38003;52.012;4.346;2023-03-12T04:13:35;7.67;;;4.57;;
51987;SDS011;38003;52.012;4.346;2023-03-12T04:16:03;10.27;;;4.83;;
51987;SDS011;38003;52.012;4.346;2023-03-12T04:18:32;8.50;;;5.40;;
51987;SDS011;38003;52.012;4.346;2023-03-12T04:21:01;14.80;;;5.73;;
51987;SDS011;38003;52.012;4.346;2023-03-12T04:23:29;12.97;;;5.63;;
51987;SDS011;38003;52.012;4.346;2023-03-12T04:25:57;9.67;;;5.33;;
51987;SDS011;38003;52.012;4.346;2023-03-12T04:28:27;8.10;;;5.23;;
51987;SDS011;38003;52.012;4.346;2023-03-12T04:30:55;16.37;;;6.23;;
51987;SDS011;38003;52.012;4.346;2023-03-12T04:33:25;8.13;;;5.53;;
51987;SDS011;38003;52.012;4.346;2023-03-12T04:35:53;7.67;;;5.53;;
51987;SDS011;38003;52.012;4.346;2023-03-12T04:38:22;8.13;;;5.67;;
51987;SDS011;38003;52.012;4.346;2023-03-12T04:40:56;7.37;;;5.87;;
51987;SDS011;38003;52.012;4.346;2023-03-12T04:43:24;9.80;;;6.33;;
51987;SDS011;38003;52.012;4.346;2023-03-12T04:45:54;10.57;;;6.37;;
51987;SDS011;38003;52.012;4.346;2023-03-12T04:48:23;14.33;;;6.50;;
51987;SDS011;38003;52.012;4.346;2023-03-12T04:50:52;9.60;;;5.93;;
51987;SDS011;38003;52.012;4.346;2023-03-12T04:53:20;10.10;;;6.10;;
51987;SDS011;38003;52.012;4.346;2023-03-12T04:55:49;11.53;;;6.17;;
51987;SDS011;38003;52.012;4.346;2023-03-12T04:58:17;11.77;;;6.17;;
51987;SDS011;38003;52.012;4.346;2023-03-12T05:00:46;11.63;;;5.87;;
51987;SDS011;38003;52.012;4.346;2023-03-12T05:03:16;11.33;;;6.20;;
51987;SDS011;38003;52.012;4.346;2023-03-12T05:05:44;9.27;;;6.30;;
51987;SDS011;38003;52.012;4.346;2023-03-12T05:08:12;9.97;;;6.40;;
51987;SDS011;38003;52.012;4.346;2023-03-12T05:10:41;12.43;;;6.80;;
51987;SDS011;38003;52.012;4.346;2023-03-12T05:13:14;11.03;;;6.97;;
51987;SDS011;38003;52.012;4.346;2023-03-12T05:15:43;15.47;;;7.53;;
51987;SDS011;38003;52.012;4.346;2023-03-12T05:18:11;10.47;;;7.10;;
51987;SDS011;38003;52.012;4.346;2023-03-12T05:20:40;9.70;;;6.80;;
51987;SDS011;38003;52.012;4.346;2023-03-12T05:23:09;9.57;;;6.63;;
51987;SDS011;38003;52.012;4.346;2023-03-12T05:25:37;10.40;;;7.23;;
51987;SDS011;38003;52.012;4.346;2023-03-12T05:28:06;11.97;;;7.77;;
51987;SDS011;38003;52.012;4.346;2023-03-12T05:30:35;13.03;;;7.70;;
51987;SDS011;38003;52.012;4.346;2023-03-12T05:33:03;13.33;;;8.27;;
51987;SDS011;38003;52.012;4.346;2023-03-12T05:35:31;12.50;;;7.80;;
51987;SDS011;38003;52.012;4.346;2023-03-12T05:38:01;13.07;;;7.93;;
51987;SDS011;38003;52.012;4.346;2023-03-12T05:40:29;13.23;;;8.83;;
51987;SDS011;38003;52.012;4.346;2023-03-12T05:42:57;10.23;;;8.40;;
51987;SDS011;38003;52.012;4.346;2023-03-12T05:45:25;18.00;;;9.13;;
51987;SDS011;38003;52.012;4.346;2023-03-12T05:47:54;13.37;;;9.57;;
51987;SDS011;38003;52.012;4.346;2023-03-12T05:50:23;12.03;;;9.30;;
51987;SDS011;38003;52.012;4.346;2023-03-12T05:52:52;13.60;;;10.57;;
51987;SDS011;38003;52.012;4.346;2023-03-12T05:55:21;12.63;;;10.67;;
51987;SDS011;38003;52.012;4.346;2023-03-12T05:57:49;15.37;;;10.20;;
51987;SDS011;38003;52.012;4.346;2023-03-12T06:00:18;15.70;;;11.13;;
51987;SDS011;38003;52.012;4.346;2023-03-12T06:02:46;17.07;;;12.73;;
51987;SDS011;38003;52.012;4.346;2023-03-12T06:05:15;16.70;;;12.67;;
51987;SDS011;38003;52.012;4.346;2023-03-12T06:07:43;15.53;;;13.50;;
51987;SDS011;38003;52.012;4.346;2023-03-12T06:10:11;18.77;;;14.07;;
51987;SDS011;38003;52.012;4.346;2023-03-12T06:12:40;15.73;;;14.23;;
51987;SDS011;38003;52.012;4.346;2023-03-12T06:15:09;16.17;;;14.60;;
51987;SDS011;38003;52.012;4.346;2023-03-12T06:17:37;16.50;;;14.87;;
51987;SDS011;38003;52.012;4.346;2023-03-12T06:20:06;18.33;;;15.77;;
51987;SDS011;38003;52.012;4.346;2023-03-12T06:22:35;17.03;;;15.43;;
51987;SDS011;38003;52.012;4.346;2023-03-12T06:25:03;17.43;;;15.87;;
51987;SDS011;38003;52.012;4.346;2023-03-12T06:27:32;18.83;;;17.13;;
51987;SDS011;38003;52.012;4.346;2023-03-12T06:30:01;20.83;;;18.87;;
51987;SDS011;38003;52.012;4.346;2023-03-12T06:32:29;21.83;;;19.80;;
51987;SDS011;38003;52.012;4.346;2023-03-12T06:34:58;20.70;;;18.80;;
51987;SDS011;38003;52.012;4.346;2023-03-12T06:37:26;21.00;;;19.10;;
51987;SDS011;38003;52.012;4.346;2023-03-12T06:39:54;21.13;;;18.93;;
51987;SDS011;38003;52.012;4.346;2023-03-12T06:42:23;23.17;;;20.97;;
51987;SDS011;38003;52.012;4.346;2023-03-12T06:44:51;25.47;;;23.07;;
51987;SDS011;38003;52.012;4.346;2023-03-12T06:47:21;28.10;;;25.73;;
51987;SDS011;38003;52.012;4.346;2023-03-12T06:49:49;27.53;;;25.13;;
51987;SDS011;38003;52.012;4.346;2023-03-12T06:52:17;27.50;;;25.17;;
51987;SDS011;38003;52.012;4.346;2023-03-12T06:54:46;33.40;;;30.83;;
51987;SDS011;38003;52.012;4.346;2023-03-12T06:57:14;39.93;;;36.83;;
51987;SDS011;38003;52.012;4.346;2023-03-12T06:59:42;40.20;;;37.03;;
51987;SDS011;38003;52.012;4.346;2023-03-12T07:02:12;46.20;;;42.73;;
51987;SDS011;38003;52.012;4.346;2023-03-12T07:04:41;48.20;;;44.67;;
51987;SDS011;38003;52.012;4.346;2023-03-12T07:07:10;48.73;;;45.07;;
51987;SDS011;38003;52.012;4.346;2023-03-12T07:09:38;50.17;;;46.53;;
51987;SDS011;38003;52.012;4.346;2023-03-12T07:12:06;54.20;;;50.27;;
51987;SDS011;38003;52.012;4.346;2023-03-12T07:14:35;52.40;;;48.70;;
51987;SDS011;38003;52.012;4.346;2023-03-12T07:17:03;57.03;;;52.77;;
51987;SDS011;38003;52.012;4.346;2023-03-12T07:19:31;71.87;;;67.13;;
51987;SDS011;38003;52.012;4.346;2023-03-12T07:22:01;75.07;;;70.47;;
51987;SDS011;38003;52.012;4.346;2023-03-12T07:24:29;92.87;;;87.47;;
51987;SDS011;38003;52.012;4.346;2023-03-12T07:26:58;89.07;;;83.53;;
51987;SDS011;38003;52.012;4.346;2023-03-12T07:29:26;94.43;;;88.63;;
51987;SDS011;38003;52.012;4.346;2023-03-12T07:31:54;93.00;;;87.47;;
51987;SDS011;38003;52.012;4.346;2023-03-12T07:34:22;120.13;;;113.60;;
51987;SDS011;38003;52.012;4.346;2023-03-12T07:36:51;139.23;;;131.60;;
51987;SDS011;38003;52.012;4.346;2023-03-12T07:39:21;152.03;;;144.23;;
51987;SDS011;38003;52.012;4.346;2023-03-12T07:41:49;159.13;;;150.73;;
51987;SDS011;38003;52.012;4.346;2023-03-12T07:44:17;163.37;;;154.73;;
51987;SDS011;38003;52.012;4.346;2023-03-12T07:46:46;163.17;;;154.23;;
51987;SDS011;38003;52.012;4.346;2023-03-12T07:49:14;127.40;;;120.27;;
51987;SDS011;38003;52.012;4.346;2023-03-12T07:51:42;153.67;;;145.77;;
51987;SDS011;38003;52.012;4.346;2023-03-12T07:54:11;153.93;;;145.63;;
51987;SDS011;38003;52.012;4.346;2023-03-12T07:56:40;173.20;;;164.17;;
51987;SDS011;38003;52.012;4.346;2023-03-12T07:59:09;169.30;;;160.60;;
51987;SDS011;38003;52.012;4.346;2023-03-12T08:01:37;181.60;;;172.13;;
51987;SDS011;38003;52.012;4.346;2023-03-12T08:04:06;199.00;;;188.97;;
51987;SDS011;38003;52.012;4.346;2023-03-12T08:06:34;224.93;;;213.77;;
51987;SDS011;38003;52.012;4.346;2023-03-12T08:09:07;285.97;;;272.37;;
51987;SDS011;38003;52.012;4.346;2023-03-12T08:11:36;317.00;;;301.83;;
51987;SDS011;38003;52.012;4.346;2023-03-12T08:14:05;341.90;;;325.43;;
51987;SDS011;38003;52.012;4.346;2023-03-12T08:16:33;365.27;;;347.40;;
51987;SDS011;38003;52.012;4.346;2023-03-12T08:19:02;357.03;;;339.73;;
51987;SDS011;38003;52.012;4.346;2023-03-12T08:21:30;389.63;;;371.07;;
51987;SDS011;38003;52.012;4.346;2023-03-12T08:23:59;436.00;;;414.67;;
51987;SDS011;38003;52.012;4.346;2023-03-12T08:26:27;450.30;;;428.67;;
51987;SDS011;38003;52.012;4.346;2023-03-12T08:28:55;435.60;;;414.47;;
51987;SDS011;38003;52.012;4.346;2023-03-12T08:31:26;476.50;;;453.63;;
51987;SDS011;38003;52.012;4.346;2023-03-12T08:33:55;505.83;;;481.43;;
51987;SDS011;38003;52.012;4.346;2023-03-12T08:36:23;530.77;;;505.83;;
51987;SDS011;38003;52.012;4.346;2023-03-12T08:38:51;533.00;;;507.90;;
51987;SDS011;38003;52.012;4.346;2023-03-12T08:41:20;566.73;;;540.50;;
51987;SDS011;38003;52.012;4.346;2023-03-12T08:43:48;586.43;;;558.73;;
51987;SDS011;38003;52.012;4.346;2023-03-12T08:46:16;639.20;;;609.13;;
51987;SDS011;38003;52.012;4.346;2023-03-12T08:48:46;749.07;;;713.73;;
51987;SDS011;38003;52.012;4.346;2023-03-12T08:51:14;745.07;;;709.57;;
51987;SDS011;38003;52.012;4.346;2023-03-12T08:53:43;789.17;;;750.63;;
51987;SDS011;38003;52.012;4.346;2023-03-12T08:56:11;863.00;;;817.70;;
51987;SDS011;38003;52.012;4.346;2023-03-12T08:58:39;860.17;;;814.47;;
51987;SDS011;38003;52.012;4.346;2023-03-12T09:01:10;867.27;;;820.47;;
51987;SDS011;38003;52.012;4.346;2023-03-12T09:03:38;892.93;;;843.37;;
51987;SDS011;38003;52.012;4.346;2023-03-12T09:06:09;880.33;;;829.83;;
51987;SDS011;38003;52.012;4.346;2023-03-12T09:08:41;843.30;;;797.83;;
51987;SDS011;38003;52.012;4.346;2023-03-12T09:11:11;849.77;;;803.53;;
51987;SDS011;38003;52.012;4.346;2023-03-12T09:13:39;852.40;;;806.00;;
51987;SDS011;38003;52.012;4.346;2023-03-12T09:16:27;861.17;;;812.87;;
51987;SDS011;38003;52.012;4.346;2023-03-12T09:18:56;853.00;;;803.77;;
51987;SDS011;38003;52.012;4.346;2023-03-12T09:21:25;851.77;;;805.17;;
51987;SDS011;38003;52.012;4.346;2023-03-12T09:23:54;849.53;;;804.50;;
51987;SDS011;38003;52.012;4.346;2023-03-12T09:26:22;858.47;;;813.63;;
51987;SDS011;38003;52.012;4.346;2023-03-12T09:28:51;857.10;;;812.17;;
51987;SDS011;38003;52.012;4.346;2023-03-12T09:31:19;848.83;;;804.43;;
51987;SDS011;38003;52.012;4.346;2023-03-12T09:33:47;851.07;;;807.83;;
51987;SDS011;38003;52.012;4.346;2023-03-12T09:36:16;827.93;;;787.47;;
51987;SDS011;38003;52.012;4.346;2023-03-12T09:38:45;826.47;;;785.20;;
51987;SDS011;38003;52.012;4.346;2023-03-12T09:41:16;803.10;;;765.23;;
51987;SDS011;38003;52.012;4.346;2023-03-12T09:43:46;815.23;;;776.43;;
51987;SDS011;38003;52.012;4.346;2023-03-12T09:46:17;796.27;;;758.50;;
51987;SDS011;38003;52.012;4.346;2023-03-12T09:48:47;775.77;;;740.40;;
51987;SDS011;38003;52.012;4.346;2023-03-12T09:51:17;772.43;;;736.70;;
51987;SDS011;38003;52.012;4.346;2023-03-12T09:53:51;712.70;;;681.30;;
51987;SDS011;38003;52.012;4.346;2023-03-12T09:56:21;677.43;;;648.00;;
51987;SDS011;38003;52.012;4.346;2023-03-12T09:58:50;586.77;;;561.40;;
51987;SDS011;38003;52.012;4.346;2023-03-12T10:01:28;607.67;;;580.60;;
51987;SDS011;38003;52.012;4.346;2023-03-12T10:04:01;532.63;;;509.40;;
51987;SDS011;38003;52.012;4.346;2023-03-12T10:06:32;406.77;;;388.67;;
51987;SDS011;38003;52.012;4.346;2023-03-12T10:09:06;404.20;;;386.10;;
51987;SDS011;38003;52.012;4.346;2023-03-12T10:11:42;419.07;;;399.93;;
51987;SDS011;38003;52.012;4.346;2023-03-12T10:14:17;470.53;;;449.37;;
51987;SDS011;38003;52.012;4.346;2023-03-12T10:16:53;421.40;;;402.30;;
51987;SDS011;38003;52.012;4.346;2023-03-12T10:19:35;378.47;;;361.83;;
51987;SDS011;38003;52.012;4.346;2023-03-12T10:22:11;347.87;;;331.80;;
51987;SDS011;38003;52.012;4.346;2023-03-12T10:24:47;374.77;;;357.47;;
51987;SDS011;38003;52.012;4.346;2023-03-12T10:27:19;269.53;;;256.23;;
51987;SDS011;38003;52.012;4.346;2023-03-12T10:29:49;223.30;;;211.63;;
51987;SDS011;38003;52.012;4.346;2023-03-12T10:32:20;258.83;;;246.37;;
51987;SDS011;38003;52.012;4.346;2023-03-12T10:34:51;294.03;;;280.03;;
51987;SDS011;38003;52.012;4.346;2023-03-12T10:37:21;246.17;;;234.40;;
51987;SDS011;38003;52.012;4.346;2023-03-12T10:39:52;215.73;;;204.83;;
51987;SDS011;38003;52.012;4.346;2023-03-12T10:42:21;219.80;;;208.33;;
51987;SDS011;38003;52.012;4.346;2023-03-12T10:44:50;209.67;;;199.13;;
51987;SDS011;38003;52.012;4.346;2023-03-12T10:47:24;179.73;;;170.47;;
51987;SDS011;38003;52.012;4.346;2023-03-12T10:49:57;196.43;;;185.83;;
51987;SDS011;38003;52.012;4.346;2023-03-12T10:52:37;227.17;;;216.13;;
51987;SDS011;38003;52.012;4.346;2023-03-12T10:55:11;296.50;;;282.67;;
51987;SDS011;38003;52.012;4.346;2023-03-12T10:57:40;323.50;;;308.47;;
51987;SDS011;38003;52.012;4.346;2023-03-12T11:00:08;339.97;;;324.10;;
51987;SDS011;38003;52.012;4.346;2023-03-12T11:02:38;339.03;;;323.80;;
51987;SDS011;38003;52.012;4.346;2023-03-12T11:05:18;300.33;;;287.03;;
51987;SDS011;38003;52.012;4.346;2023-03-12T11:07:46;283.50;;;270.13;;
51987;SDS011;38003;52.012;4.346;2023-03-12T11:10:17;258.83;;;247.00;;
51987;SDS011;38003;52.012;4.346;2023-03-12T11:12:56;254.37;;;241.57;;
51987;SDS011;38003;52.012;4.346;2023-03-12T11:15:26;181.23;;;171.07;;
51987;SDS011;38003;52.012;4.346;2023-03-12T11:20:43;163.97;;;154.43;;
51987;SDS011;38003;52.012;4.346;2023-03-12T11:23:12;136.00;;;128.20;;
51987;SDS011;38003;52.012;4.346;2023-03-12T11:25:42;105.70;;;98.00;;
51987;SDS011;38003;52.012;4.346;2023-03-12T11:28:12;131.30;;;123.13;;
51987;SDS011;38003;52.012;4.346;2023-03-12T11:30:44;77.40;;;71.70;;
51987;SDS011;38003;52.012;4.346;2023-03-12T11:33:12;95.00;;;88.40;;
51987;SDS011;38003;52.012;4.346;2023-03-12T11:35:42;68.60;;;62.47;;
51987;SDS011;38003;52.012;4.346;2023-03-12T11:38:15;64.00;;;58.33;;
51987;SDS011;38003;52.012;4.346;2023-03-12T11:40:58;59.57;;;54.53;;
51987;SDS011;38003;52.012;4.346;2023-03-12T11:43:32;42.07;;;37.50;;
51987;SDS011;38003;52.012;4.346;2023-03-12T11:46:17;49.40;;;43.77;;
51987;SDS011;38003;52.012;4.346;2023-03-12T11:48:50;46.33;;;41.83;;
51987;SDS011;38003;52.012;4.346;2023-03-12T11:51:25;45.60;;;33.50;;
51987;SDS011;38003;52.012;4.346;2023-03-12T11:53:58;35.17;;;28.60;;
51987;SDS011;38003;52.012;4.346;2023-03-12T11:56:32;33.93;;;21.07;;
51987;SDS011;38003;52.012;4.346;2023-03-12T11:59:08;37.03;;;21.50;;
51987;SDS011;38003;52.012;4.346;2023-03-12T12:01:41;29.53;;;16.80;;
51987;SDS011;38003;52.012;4.346;2023-03-12T12:04:19;35.97;;;14.03;;
51987;SDS011;38003;52.012;4.346;2023-03-12T12:06:56;28.17;;;11.63;;
51987;SDS011;38003;52.012;4.346;2023-03-12T12:09:31;38.70;;;13.47;;
51987;SDS011;38003;52.012;4.346;2023-03-12T12:12:13;34.73;;;11.10;;
51987;SDS011;38003;52.012;4.346;2023-03-12T12:14:48;18.70;;;8.83;;
51987;SDS011;38003;52.012;4.346;2023-03-12T12:17:22;34.57;;;9.60;;
51987;SDS011;38003;52.012;4.346;2023-03-12T12:19:56;26.37;;;8.07;;
51987;SDS011;38003;52.012;4.346;2023-03-12T12:22:28;28.83;;;6.73;;
51987;SDS011;38003;52.012;4.346;2023-03-12T12:25:05;35.67;;;9.30;;
51987;SDS011;38003;52.012;4.346;2023-03-12T12:27:41;32.93;;;7.10;;
51987;SDS011;38003;52.012;4.346;2023-03-12T12:30:13;35.50;;;7.03;;
51987;SDS011;38003;52.012;4.346;2023-03-12T12:32:53;30.10;;;6.23;;
51987;SDS011;38003;52.012;4.346;2023-03-12T12:35:28;32.07;;;6.50;;
51987;SDS011;38003;52.012;4.346;2023-03-12T12:38:01;32.70;;;7.03;;
51987;SDS011;38003;52.012;4.346;2023-03-12T12:40:32;32.00;;;7.30;;
51987;SDS011;38003;52.012;4.346;2023-03-12T12:43:09;31.03;;;7.10;;
51987;SDS011;38003;52.012;4.346;2023-03-12T12:45:41;24.67;;;6.27;;
51987;SDS011;38003;52.012;4.346;2023-03-12T12:48:12;30.27;;;6.67;;
51987;SDS011;38003;52.012;4.346;2023-03-12T12:50:41;28.07;;;5.87;;
51987;SDS011;38003;52.012;4.346;2023-03-12T12:53:13;32.07;;;6.37;;
51987;SDS011;38003;52.012;4.346;2023-03-12T12:55:44;33.70;;;5.90;;
51987;SDS011;38003;52.012;4.346;2023-03-12T12:58:18;28.20;;;5.57;;
51987;SDS011;38003;52.012;4.346;2023-03-12T13:00:49;28.13;;;5.60;;
51987;SDS011;38003;52.012;4.346;2023-03-12T13:03:19;27.87;;;7.07;;
51987;SDS011;38003;52.012;4.346;2023-03-12T13:05:55;31.87;;;6.33;;
51987;SDS011;38003;52.012;4.346;2023-03-12T13:08:31;24.77;;;5.87;;
51987;SDS011;38003;52.012;4.346;2023-03-12T13:11:02;33.23;;;6.50;;
51987;SDS011;38003;52.012;4.346;2023-03-12T13:13:46;32.50;;;6.60;;
51987;SDS011;38003;52.012;4.346;2023-03-12T13:16:16;24.93;;;4.87;;
51987;SDS011;38003;52.012;4.346;2023-03-12T13:18:54;30.87;;;6.47;;
51987;SDS011;38003;52.012;4.346;2023-03-12T13:21:23;33.80;;;6.00;;
51987;SDS011;38003;52.012;4.346;2023-03-12T13:23:54;29.93;;;6.70;;
51987;SDS011;38003;52.012;4.346;2023-03-12T13:26:26;25.07;;;4.97;;
51987;SDS011;38003;52.012;4.346;2023-03-12T13:29:10;29.37;;;5.70;;
51987;SDS011;38003;52.012;4.346;2023-03-12T13:31:40;30.13;;;6.63;;
51987;SDS011;38003;52.012;4.346;2023-03-12T13:36:57;26.63;;;5.70;;
51987;SDS011;38003;52.012;4.346;2023-03-12T13:39:27;25.73;;;5.47;;
51987;SDS011;38003;52.012;4.346;2023-03-12T13:41:57;18.83;;;4.43;;
51987;SDS011;38003;52.012;4.346;2023-03-12T13:44:31;36.23;;;8.13;;
51987;SDS011;38003;52.012;4.346;2023-03-12T13:47:05;26.03;;;5.07;;
51987;SDS011;38003;52.012;4.346;2023-03-12T13:49:44;32.07;;;6.73;;
51987;SDS011;38003;52.012;4.346;2023-03-12T13:52:18;31.50;;;5.87;;
51987;SDS011;38003;52.012;4.346;2023-03-12T13:54:48;25.93;;;5.17;;
51987;SDS011;38003;52.012;4.346;2023-03-12T13:57:24;31.77;;;5.43;;
51987;SDS011;38003;52.012;4.346;2023-03-12T13:59:54;24.03;;;5.50;;
51987;SDS011;38003;52.012;4.346;2023-03-12T14:02:24;30.00;;;5.93;;
51987;SDS011;38003;52.012;4.346;2023-03-12T14:04:53;29.80;;;6.93;;
51987;SDS011;38003;52.012;4.346;2023-03-12T14:07:50;26.97;;;5.40;;
51987;SDS011;38003;52.012;4.346;2023-03-12T14:10:32;28.13;;;5.93;;
51987;SDS011;38003;52.012;4.346;2023-03-12T14:13:05;28.57;;;6.13;;
51987;SDS011;38003;52.012;4.346;2023-03-12T14:15:39;30.33;;;6.10;;
51987;SDS011;38003;52.012;4.346;2023-03-12T14:18:11;26.27;;;5.37;;
51987;SDS011;38003;52.012;4.346;2023-03-12T14:20:40;22.47;;;5.30;;
51987;SDS011;38003;52.012;4.346;2023-03-12T14:23:16;22.33;;;4.70;;
51987;SDS011;38003;52.012;4.346;2023-03-12T14:25:46;27.70;;;5.87;;
51987;SDS011;38003;52.012;4.346;2023-03-12T14:28:16;33.70;;;6.93;;
51987;SDS011;38003;52.012;4.346;2023-03-12T14:30:48;33.03;;;6.47;;
51987;SDS011;38003;52.012;4.346;2023-03-12T14:33:17;21.53;;;4.97;;
51987;SDS011;38003;52.012;4.346;2023-03-12T14:35:46;30.00;;;6.37;;
51987;SDS011;38003;52.012;4.346;2023-03-12T14:38:19;34.53;;;5.90;;
51987;SDS011;38003;52.012;4.346;2023-03-12T14:40:50;30.00;;;6.17;;
51987;SDS011;38003;52.012;4.346;2023-03-12T14:43:21;39.43;;;6.97;;
51987;SDS011;38003;52.012;4.346;2023-03-12T14:45:52;31.80;;;6.50;;
51987;SDS011;38003;52.012;4.346;2023-03-12T14:48:22;37.43;;;7.40;;